Estación Meteorológica Peña el Pijo (Robertgarden) [ 09/24/17 17:45:06 CEST ]

Fecha Hora Presion(HPa) Temp (°C) Humedad % Rocio (°C) Viento ( m/s) Direccion Lluvia 1Hora(mm) Lluvia 24H(mm) LLuvia Total(mm)
2017-Sep-07 01:01:54 1013.600 15.6 68 9.7         1457.65
2017-Sep-07 02:01:48 1013.300 14.6 72 9.6         1457.65
2017-Sep-07 03:02:14 1012.600 14.3 75 9.9         1457.65
2017-Sep-07 04:02:03 1012.300 13.5 78 9.7         1457.65
2017-Sep-07 05:02:01 1011.900 12.8 79 9.2         1457.65
2017-Sep-07 06:05:09 1011.400 12.6 80 9.2         1457.65
2017-Sep-07 07:01:51 1011.700 11.9 81 8.8         1457.65
2017-Sep-07 08:01:44 1011.900 11.5 82 8.5         1457.65
2017-Sep-07 09:01:43 1012.400 12.3 84 9.7         1457.65
2017-Sep-07 10:01:47 1012.200 16.7 80 13.2         1457.65
2017-Sep-07 11:01:55 1012.100 20.4 70 14.8         1457.65
2017-Sep-07 12:01:52 1011.800 26.6 53 16.2         1457.65
2017-Sep-07 13:01:47 1011.100 30.4 41 15.7         1457.65
2017-Sep-07 14:01:50 1010.700 29.2 40 14.3         1457.65
2017-Sep-07 15:01:44 1010.100 27.4 42 13.3         1457.65
2017-Sep-07 16:01:43 1009.900 29.9 37 13.6         1457.65
2017-Sep-07 17:01:40 1009.600 28.2 40 13.4         1457.65
2017-Sep-07 18:01:38 1009.300 27.8 40 12.6         1457.65
2017-Sep-07 19:01:35 1009.400 25.9 46 13.0 1.5 SSE     1457.65
2017-Sep-07 20:01:32 1009.700 23.6 53 13.4         1457.65
2017-Sep-07 21:01:29 1010.700 21.3 61 13.6         1457.65
2017-Sep-07 22:01:36 1011.400 19.6 66 13.0         1457.65
2017-Sep-07 23:01:34 1011.800 16.9 72 11.6         1457.65

Temperatura Máxima:30°    Temperatura Mínima:11°
Presión Máxima:1013.600 Hpa    Presión Mínima:1009.300 Hpa


Volver